createdAt,value
2017-06-23T00:02:22.798Z,14.80
2017-06-23T00:04:50.109Z,12.70
2017-06-23T00:07:16.513Z,11.90
2017-06-23T00:09:42.939Z,9.67
2017-06-23T00:12:09.344Z,13.23
2017-06-23T00:14:36.501Z,11.00
2017-06-23T00:17:03.671Z,10.87
2017-06-23T00:19:30.094Z,11.20
2017-06-23T00:21:56.490Z,10.40
2017-06-23T00:24:22.880Z,9.13
2017-06-23T00:26:49.360Z,13.50
2017-06-23T00:29:15.784Z,7.73
2017-06-23T00:31:42.185Z,13.13
2017-06-23T00:34:08.610Z,11.40
2017-06-23T00:36:35.029Z,11.67
2017-06-23T00:39:01.437Z,14.10
2017-06-23T00:41:28.573Z,13.50
2017-06-23T00:43:54.980Z,14.83
2017-06-23T00:46:21.403Z,14.40
2017-06-23T00:48:47.814Z,14.60
2017-06-23T00:51:14.225Z,13.77
2017-06-23T00:53:41.390Z,11.80
2017-06-23T00:56:07.796Z,22.20
2017-06-23T00:58:34.946Z,13.80
2017-06-23T01:01:02.144Z,12.83
2017-06-23T01:03:28.542Z,18.10
2017-06-23T01:05:54.952Z,16.40
2017-06-23T01:08:21.346Z,31.20
2017-06-23T01:10:47.737Z,10.60
2017-06-23T01:13:14.925Z,41.57
2017-06-23T01:15:41.346Z,30.37
2017-06-23T01:18:07.742Z,21.90
2017-06-23T01:20:34.928Z,21.63
2017-06-23T01:23:01.371Z,19.33
2017-06-23T01:25:27.816Z,18.07
2017-06-23T01:27:54.238Z,8.43
2017-06-23T01:30:20.657Z,9.17
2017-06-23T01:32:47.088Z,7.13
2017-06-23T01:35:13.538Z,7.13
2017-06-23T01:37:39.981Z,13.53
2017-06-23T01:40:06.525Z,6.77
2017-06-23T01:42:33.005Z,8.40
2017-06-23T01:45:00.200Z,9.90
2017-06-23T01:47:26.607Z,10.77
2017-06-23T01:49:53.008Z,8.17
2017-06-23T01:52:20.194Z,12.60
2017-06-23T01:54:46.628Z,9.33
2017-06-23T01:57:13.059Z,8.70
2017-06-23T01:59:39.452Z,12.83
2017-06-23T02:02:05.878Z,18.53
2017-06-23T02:04:32.279Z,7.53
2017-06-23T02:06:58.717Z,16.33
2017-06-23T02:09:25.135Z,11.63
2017-06-23T02:11:51.531Z,11.20
2017-06-23T02:14:18.673Z,19.43
2017-06-23T02:16:45.101Z,13.53
2017-06-23T02:19:11.529Z,20.23
2017-06-23T02:21:37.953Z,9.23
2017-06-23T02:24:04.391Z,10.23
2017-06-23T02:26:30.807Z,9.13
2017-06-23T02:28:57.205Z,15.50
2017-06-23T02:31:23.618Z,12.50
2017-06-23T02:33:50.763Z,12.60
2017-06-23T02:36:17.919Z,12.00
2017-06-23T02:38:45.063Z,12.07
2017-06-23T02:41:12.202Z,11.30
2017-06-23T02:43:39.407Z,11.60
2017-06-23T02:46:05.829Z,9.47
2017-06-23T02:48:32.231Z,14.07
2017-06-23T02:50:59.390Z,17.00
2017-06-23T02:53:25.789Z,14.43
2017-06-23T02:55:52.207Z,10.03
2017-06-23T02:58:18.628Z,18.50
2017-06-23T03:00:45.033Z,12.93
2017-06-23T03:03:11.441Z,11.03
2017-06-23T03:05:38.617Z,8.40
2017-06-23T03:08:05.059Z,11.17
2017-06-23T03:10:31.457Z,15.00
2017-06-23T03:12:58.640Z,16.93
2017-06-23T03:15:25.022Z,9.63
2017-06-23T03:17:51.445Z,12.93
2017-06-23T03:20:17.848Z,75.60
2017-06-23T03:22:44.406Z,37.50
2017-06-23T03:25:10.801Z,20.07
2017-06-23T03:27:37.223Z,19.53
2017-06-23T03:30:03.637Z,15.63
2017-06-23T03:32:30.791Z,20.43
2017-06-23T03:34:57.954Z,10.63
2017-06-23T03:37:24.372Z,20.80
2017-06-23T03:39:51.525Z,25.03
2017-06-23T03:42:18.663Z,15.07
2017-06-23T03:44:45.829Z,17.33
2017-06-23T03:47:12.247Z,17.83
2017-06-23T03:49:39.416Z,15.43
2017-06-23T03:52:05.838Z,13.50
2017-06-23T03:54:33.003Z,23.17
2017-06-23T03:56:59.401Z,16.17
2017-06-23T03:59:25.800Z,16.23
2017-06-23T04:01:52.207Z,19.03
2017-06-23T04:04:18.612Z,13.90
2017-06-23T04:06:45.764Z,15.07
2017-06-23T04:09:12.908Z,14.17
2017-06-23T04:11:40.052Z,13.90
2017-06-23T04:14:06.468Z,17.47
2017-06-23T04:16:32.856Z,18.70
2017-06-23T04:18:59.267Z,15.73
2017-06-23T04:21:26.489Z,15.50
2017-06-23T04:23:52.902Z,20.17
2017-06-23T04:26:19.408Z,13.10
2017-06-23T04:28:45.837Z,13.43
2017-06-23T04:31:12.220Z,17.70
2017-06-23T04:33:38.690Z,18.20
2017-06-23T04:36:05.111Z,16.53
2017-06-23T04:38:32.237Z,17.80
2017-06-23T04:40:58.645Z,16.07
2017-06-23T04:43:25.045Z,22.83
2017-06-23T04:45:51.439Z,35.17
2017-06-23T04:48:17.849Z,18.27
2017-06-23T04:50:44.250Z,18.73
2017-06-23T04:53:10.643Z,21.23
2017-06-23T04:55:37.049Z,18.83
2017-06-23T04:58:03.471Z,18.27
2017-06-23T05:00:29.877Z,17.53
2017-06-23T05:02:56.334Z,23.20
2017-06-23T05:05:23.110Z,24.17
2017-06-23T05:07:49.500Z,20.80
2017-06-23T05:10:15.934Z,19.53
2017-06-23T05:12:42.357Z,26.20
2017-06-23T05:15:08.849Z,18.87
2017-06-23T05:17:35.301Z,33.43
2017-06-23T05:20:02.447Z,16.00
2017-06-23T05:22:29.578Z,30.67
2017-06-23T05:24:55.982Z,25.13
2017-06-23T05:27:22.390Z,21.27
2017-06-23T05:29:48.948Z,15.60
2017-06-23T05:32:15.356Z,23.80
2017-06-23T05:34:41.787Z,19.10
2017-06-23T05:37:08.196Z,21.00
2017-06-23T05:39:35.330Z,17.33
2017-06-23T05:42:02.474Z,21.20
2017-06-23T05:44:28.887Z,21.87
2017-06-23T05:46:55.290Z,31.27
2017-06-23T05:49:21.698Z,26.20
2017-06-23T05:51:48.861Z,27.40
2017-06-23T05:54:15.273Z,25.30
2017-06-23T05:56:42.444Z,27.50
2017-06-23T05:59:08.876Z,19.17
2017-06-23T06:01:35.321Z,20.53
2017-06-23T06:04:01.710Z,22.50
2017-06-23T06:06:28.135Z,22.90
2017-06-23T06:08:54.536Z,26.20
2017-06-23T06:11:20.921Z,30.93
2017-06-23T06:13:48.045Z,24.63
2017-06-23T06:16:14.572Z,22.97
2017-06-23T06:18:41.023Z,28.50
2017-06-23T06:21:07.417Z,37.73
2017-06-23T06:23:33.823Z,18.93
2017-06-23T06:26:00.243Z,26.97
2017-06-23T06:28:27.414Z,29.90
2017-06-23T06:30:53.839Z,29.63
2017-06-23T06:33:20.224Z,41.77
2017-06-23T06:35:46.629Z,33.67
2017-06-23T06:38:13.044Z,36.93
2017-06-23T06:40:39.431Z,28.17
2017-06-23T06:43:05.842Z,33.93
2017-06-23T06:45:32.261Z,27.43
2017-06-23T06:47:58.660Z,31.00
2017-06-23T06:50:25.087Z,23.87
2017-06-23T06:52:52.217Z,29.53
2017-06-23T06:55:18.648Z,24.87
2017-06-23T06:57:45.063Z,23.80
2017-06-23T07:00:11.490Z,23.90
2017-06-23T07:02:37.924Z,21.40
2017-06-23T07:05:04.404Z,30.27
2017-06-23T07:07:30.811Z,23.67
2017-06-23T07:09:57.210Z,21.50
2017-06-23T07:12:23.637Z,29.37
2017-06-23T07:14:50.060Z,25.93
2017-06-23T07:17:16.477Z,27.00
2017-06-23T07:19:42.880Z,25.57
2017-06-23T07:22:09.293Z,22.93
2017-06-23T07:24:35.719Z,27.47
2017-06-23T07:27:02.162Z,22.00
2017-06-23T07:29:28.557Z,25.80
2017-06-23T07:31:54.980Z,30.87
2017-06-23T07:34:21.404Z,24.23
2017-06-23T07:36:47.787Z,22.73
2017-06-23T07:39:14.161Z,28.97
2017-06-23T07:41:40.583Z,20.93
2017-06-23T07:44:07.761Z,25.47
2017-06-23T07:46:34.158Z,28.33
2017-06-23T07:49:01.317Z,22.53
2017-06-23T07:51:28.494Z,27.50
2017-06-23T07:53:54.892Z,22.90
2017-06-23T07:56:21.334Z,24.63
2017-06-23T07:58:48.488Z,29.13
2017-06-23T08:01:15.625Z,25.37
2017-06-23T08:03:42.777Z,21.47
2017-06-23T08:06:09.931Z,24.33
2017-06-23T08:08:37.078Z,24.27
2017-06-23T08:11:04.212Z,26.93
2017-06-23T08:13:30.634Z,24.80
2017-06-23T08:15:57.023Z,28.77
2017-06-23T08:18:23.481Z,21.43
2017-06-23T08:20:49.884Z,29.00
2017-06-23T08:23:16.281Z,27.23
2017-06-23T08:25:42.688Z,21.00
2017-06-23T08:28:09.113Z,20.83
2017-06-23T08:30:35.518Z,25.50
2017-06-23T08:33:01.952Z,21.33
2017-06-23T08:35:28.345Z,18.13
2017-06-23T08:37:54.745Z,24.70
2017-06-23T08:40:21.170Z,28.20
2017-06-23T08:42:47.587Z,22.97
2017-06-23T08:45:14.038Z,26.37
2017-06-23T08:47:40.425Z,20.40
2017-06-23T08:50:06.823Z,20.53
2017-06-23T08:52:33.240Z,26.00
2017-06-23T08:54:59.657Z,23.50
2017-06-23T08:57:26.040Z,22.20
2017-06-23T08:59:52.611Z,20.63
2017-06-23T09:02:19.039Z,25.87
2017-06-23T09:04:45.424Z,19.13
2017-06-23T09:07:11.828Z,22.63
2017-06-23T09:09:38.241Z,25.47
2017-06-23T09:12:04.643Z,27.53
2017-06-23T09:14:31.792Z,17.07
2017-06-23T09:19:44.039Z,23.50
2017-06-23T09:22:21.958Z,17.37
2017-06-23T09:24:53.424Z,26.70
2017-06-23T09:27:19.849Z,24.00
2017-06-23T09:29:46.275Z,19.20
2017-06-23T09:32:12.721Z,21.97
2017-06-23T09:34:39.178Z,16.93
2017-06-23T09:37:05.615Z,19.80
2017-06-23T09:39:32.024Z,24.03
2017-06-23T09:42:00.484Z,22.23
2017-06-23T09:44:32.312Z,23.77
2017-06-23T09:47:02.302Z,22.90
2017-06-23T09:49:28.720Z,15.20
2017-06-23T09:51:55.123Z,22.03
2017-06-23T09:54:21.547Z,23.30
2017-06-23T09:56:47.948Z,17.23
2017-06-23T09:59:14.383Z,19.50
2017-06-23T10:01:40.780Z,47.33
2017-06-23T10:04:07.354Z,21.17
2017-06-23T10:06:33.744Z,13.37
2017-06-23T10:09:00.140Z,22.30
2017-06-23T10:11:27.274Z,29.13
2017-06-23T10:13:53.686Z,28.07
2017-06-23T10:16:20.079Z,17.37
2017-06-23T10:18:46.530Z,13.70
2017-06-23T10:21:12.965Z,18.47
2017-06-23T10:23:39.365Z,22.07
2017-06-23T10:26:05.739Z,25.43
2017-06-23T10:28:32.175Z,28.53
2017-06-23T10:30:58.595Z,17.60
2017-06-23T10:33:24.996Z,18.10
2017-06-23T10:35:51.418Z,20.43
2017-06-23T10:38:17.817Z,19.60
2017-06-23T10:40:44.233Z,20.60
2017-06-23T10:43:10.646Z,17.80
2017-06-23T10:45:37.060Z,16.43
2017-06-23T10:48:03.511Z,13.90
2017-06-23T10:50:29.926Z,17.47
2017-06-23T10:52:56.360Z,20.33
2017-06-23T10:55:22.769Z,24.10
2017-06-23T10:57:49.966Z,20.87
2017-06-23T11:00:16.388Z,19.00
2017-06-23T11:02:42.777Z,17.00
2017-06-23T11:05:09.204Z,19.13
2017-06-23T11:07:35.677Z,16.33
2017-06-23T11:10:02.163Z,11.57
2017-06-23T11:12:28.645Z,21.33
2017-06-23T11:14:55.112Z,25.10
2017-06-23T11:17:21.520Z,23.90
2017-06-23T11:19:48.009Z,24.87
2017-06-23T11:22:15.165Z,15.63
2017-06-23T11:24:41.568Z,17.50
2017-06-23T11:27:08.015Z,15.73
2017-06-23T11:29:34.405Z,17.60
2017-06-23T11:32:00.802Z,17.50
2017-06-23T11:34:31.747Z,21.50
2017-06-23T11:36:58.893Z,21.50
2017-06-23T11:39:26.040Z,24.70
2017-06-23T11:41:53.187Z,13.80
2017-06-23T11:44:19.683Z,22.47
2017-06-23T11:46:46.101Z,18.23
2017-06-23T11:49:12.564Z,13.13
2017-06-23T11:51:39.005Z,17.07
2017-06-23T11:54:05.408Z,26.63
2017-06-23T11:56:31.823Z,18.83
2017-06-23T11:58:58.252Z,13.27
2017-06-23T12:01:24.712Z,16.63
2017-06-23T12:03:51.135Z,19.83
2017-06-23T12:06:17.594Z,18.67
2017-06-23T12:08:43.977Z,17.63
2017-06-23T12:11:10.357Z,21.13
2017-06-23T12:13:36.764Z,27.27
2017-06-23T12:16:03.217Z,18.77
2017-06-23T12:18:29.880Z,18.33
2017-06-23T12:20:56.287Z,14.30
2017-06-23T12:23:22.699Z,16.87
2017-06-23T12:25:49.151Z,15.37
2017-06-23T12:28:15.578Z,14.10
2017-06-23T12:30:41.982Z,16.30
2017-06-23T12:33:08.363Z,21.20
2017-06-23T12:35:34.779Z,13.33
2017-06-23T12:38:01.174Z,17.57
2017-06-23T12:40:27.578Z,23.27
2017-06-23T12:42:54.187Z,21.13
2017-06-23T12:45:20.597Z,14.33
2017-06-23T12:47:47.027Z,16.80
2017-06-23T12:50:13.446Z,11.77
2017-06-23T12:52:39.816Z,12.10
2017-06-23T12:55:06.211Z,11.53
2017-06-23T12:57:32.628Z,22.03
2017-06-23T12:59:59.813Z,12.13
2017-06-23T13:02:26.233Z,16.37
2017-06-23T13:04:52.649Z,12.97
2017-06-23T13:07:19.081Z,13.63
2017-06-23T13:09:45.481Z,19.07
2017-06-23T13:12:11.899Z,16.73
2017-06-23T13:14:38.319Z,13.70
2017-06-23T13:17:04.787Z,11.30
2017-06-23T13:19:31.173Z,12.83
2017-06-23T13:21:57.603Z,18.50
2017-06-23T13:24:24.023Z,13.27
2017-06-23T13:26:50.471Z,11.23
2017-06-23T13:29:16.845Z,16.53
2017-06-23T13:31:43.250Z,11.57
2017-06-23T13:34:09.665Z,12.87
2017-06-23T13:36:36.074Z,16.57
2017-06-23T13:39:02.645Z,10.37
2017-06-23T13:41:29.030Z,11.80
2017-06-23T13:43:55.434Z,15.73
2017-06-23T13:46:21.867Z,13.63
2017-06-23T13:48:48.269Z,12.17
2017-06-23T13:51:14.672Z,10.27
2017-06-23T13:53:41.827Z,18.33
2017-06-23T13:56:08.248Z,10.60
2017-06-23T13:58:35.377Z,11.57
2017-06-23T14:01:01.824Z,17.90
2017-06-23T14:03:29.020Z,10.80
2017-06-23T14:05:55.477Z,16.90
2017-06-23T14:08:21.895Z,13.27
2017-06-23T14:10:48.318Z,14.07
2017-06-23T14:13:14.724Z,12.80
2017-06-23T14:15:41.257Z,12.70
2017-06-23T14:18:08.413Z,15.83
2017-06-23T14:20:34.852Z,13.07
2017-06-23T14:23:01.845Z,16.07
2017-06-23T14:25:28.326Z,10.17
2017-06-23T14:27:54.817Z,16.10
2017-06-23T14:30:21.265Z,10.93
2017-06-23T14:32:47.719Z,17.60
2017-06-23T14:35:14.937Z,10.23
2017-06-23T14:37:41.387Z,9.77
2017-06-23T14:40:07.806Z,15.90
2017-06-23T14:42:34.205Z,19.23
2017-06-23T14:45:00.629Z,10.13
2017-06-23T14:47:27.144Z,13.40
2017-06-23T14:49:53.576Z,16.63
2017-06-23T14:52:20.752Z,12.03
2017-06-23T14:54:47.192Z,9.07
2017-06-23T14:57:13.625Z,19.30
2017-06-23T14:59:40.028Z,15.33
2017-06-23T15:02:06.419Z,11.77
2017-06-23T15:04:32.828Z,8.17
2017-06-23T15:06:59.262Z,13.23
2017-06-23T15:09:25.698Z,8.37
2017-06-23T15:11:52.112Z,9.50
2017-06-23T15:14:18.548Z,12.03
2017-06-23T15:16:44.958Z,9.53
2017-06-23T15:19:12.104Z,15.00
2017-06-23T15:21:39.262Z,10.83
2017-06-23T15:24:05.665Z,8.23
2017-06-23T15:26:32.074Z,11.57
2017-06-23T15:28:59.329Z,9.70
2017-06-23T15:31:25.739Z,10.63
2017-06-23T15:33:52.162Z,11.43
2017-06-23T15:36:18.567Z,12.03
2017-06-23T15:38:45.009Z,9.87
2017-06-23T15:41:11.462Z,10.93
2017-06-23T15:43:38.006Z,12.53
2017-06-23T15:46:04.447Z,14.67
2017-06-23T15:48:31.764Z,14.67
2017-06-23T15:50:58.918Z,10.97
2017-06-23T15:53:25.329Z,18.23
2017-06-23T15:55:51.732Z,11.77
2017-06-23T15:58:18.434Z,11.67
2017-06-23T16:00:44.893Z,11.80
2017-06-23T16:03:11.268Z,18.17
2017-06-23T16:05:37.706Z,12.20
2017-06-23T16:08:04.911Z,12.10
2017-06-23T16:10:31.331Z,14.50
2017-06-23T16:12:57.775Z,11.73
2017-06-23T16:15:24.201Z,8.97
2017-06-23T16:17:50.632Z,9.87
2017-06-23T16:20:17.091Z,8.67
2017-06-23T16:22:43.555Z,7.63
2017-06-23T16:25:10.062Z,9.37
2017-06-23T16:27:36.496Z,11.63
2017-06-23T16:30:02.910Z,10.40
2017-06-23T16:32:29.311Z,9.50
2017-06-23T16:34:56.477Z,15.10
2017-06-23T16:37:22.922Z,15.40
2017-06-23T16:39:49.311Z,15.23
2017-06-23T16:42:15.706Z,16.70
2017-06-23T16:44:42.110Z,14.13
2017-06-23T16:47:08.530Z,9.60
2017-06-23T16:49:35.690Z,11.30
2017-06-23T16:52:02.091Z,17.00
2017-06-23T16:54:28.501Z,21.50
2017-06-23T16:56:54.909Z,10.30
2017-06-23T16:59:21.323Z,10.37
2017-06-23T17:01:48.122Z,11.93
2017-06-23T17:04:14.522Z,20.43
2017-06-23T17:06:40.904Z,14.20
2017-06-23T17:09:07.337Z,11.10
2017-06-23T17:11:34.515Z,15.93
2017-06-23T17:14:00.913Z,13.13
2017-06-23T17:16:27.316Z,13.40
2017-06-23T17:18:59.780Z,15.07
2017-06-23T17:21:26.176Z,12.20
2017-06-23T17:23:53.313Z,12.10
2017-06-23T17:26:20.476Z,9.13
2017-06-23T17:28:46.870Z,10.67
2017-06-23T17:31:13.274Z,10.50
2017-06-23T17:33:39.685Z,15.50
2017-06-23T17:36:06.059Z,10.93
2017-06-23T17:38:32.671Z,20.60
2017-06-23T17:40:59.060Z,15.60
2017-06-23T17:43:26.196Z,19.20
2017-06-23T17:45:52.611Z,16.17
2017-06-23T17:48:19.019Z,12.83
2017-06-23T17:50:45.434Z,21.13
2017-06-23T17:53:11.832Z,9.20
2017-06-23T17:55:38.264Z,13.93
2017-06-23T17:58:04.673Z,15.70
2017-06-23T18:00:31.065Z,11.20
2017-06-23T18:02:57.479Z,12.43
2017-06-23T18:05:24.637Z,22.13
2017-06-23T18:07:51.783Z,12.30
2017-06-23T18:10:18.958Z,16.27
2017-06-23T18:12:45.399Z,13.00
2017-06-23T18:15:11.882Z,14.37
2017-06-23T18:17:38.279Z,16.20
2017-06-23T18:20:04.689Z,19.27
2017-06-23T18:22:31.930Z,12.50
2017-06-23T18:24:58.349Z,16.43
2017-06-23T18:27:25.499Z,8.77
2017-06-23T18:29:52.627Z,12.17
2017-06-23T18:32:19.047Z,9.63
2017-06-23T18:34:45.452Z,14.53
2017-06-23T18:37:11.845Z,13.93
2017-06-23T18:39:38.328Z,11.13
2017-06-23T18:42:04.764Z,12.10
2017-06-23T18:44:31.137Z,11.97
2017-06-23T18:46:58.301Z,12.70
2017-06-23T18:49:25.469Z,11.53
2017-06-23T18:51:51.898Z,23.23
2017-06-23T18:54:18.296Z,17.03
2017-06-23T18:56:45.425Z,14.07
2017-06-23T18:59:11.844Z,20.37
2017-06-23T19:01:38.248Z,10.10
2017-06-23T19:04:04.684Z,11.37
2017-06-23T19:06:31.119Z,15.67
2017-06-23T19:08:57.490Z,12.93
2017-06-23T19:11:23.955Z,15.00
2017-06-23T19:13:50.343Z,14.87
2017-06-23T19:16:16.720Z,15.50
2017-06-23T19:18:43.893Z,21.50
2017-06-23T19:21:10.306Z,11.00
2017-06-23T19:23:36.736Z,14.00
2017-06-23T19:26:03.157Z,20.93
2017-06-23T19:28:29.557Z,9.33
2017-06-23T19:30:55.992Z,14.87
2017-06-23T19:33:22.396Z,12.77
2017-06-23T19:35:48.831Z,16.17
2017-06-23T19:38:15.257Z,14.43
2017-06-23T19:40:41.687Z,13.50
2017-06-23T19:43:08.253Z,17.90
2017-06-23T19:45:34.685Z,17.50
2017-06-23T19:48:01.117Z,20.90
2017-06-23T19:50:27.528Z,16.27
2017-06-23T19:52:53.947Z,17.47
2017-06-23T19:55:21.088Z,17.33
2017-06-23T19:57:47.525Z,19.87
2017-06-23T20:00:14.981Z,21.23
2017-06-23T20:02:41.383Z,20.50
2017-06-23T20:05:09.528Z,23.70
2017-06-23T20:07:35.960Z,28.70
2017-06-23T20:10:02.379Z,19.43
2017-06-23T20:12:28.801Z,22.03
2017-06-23T20:14:55.218Z,19.37
2017-06-23T20:17:22.395Z,21.97
2017-06-23T20:19:48.802Z,23.97
2017-06-23T20:22:15.937Z,18.20
2017-06-23T20:24:42.329Z,23.63
2017-06-23T20:27:09.608Z,20.27
2017-06-23T20:29:36.255Z,24.50
2017-06-23T20:32:03.093Z,25.13
2017-06-23T20:34:29.487Z,16.73
2017-06-23T20:36:55.902Z,31.40
2017-06-23T20:39:22.336Z,22.53
2017-06-23T20:41:48.732Z,21.47
2017-06-23T20:44:15.196Z,19.90
2017-06-23T20:46:41.599Z,18.70
2017-06-23T20:49:08.154Z,22.60
2017-06-23T20:51:34.653Z,19.83
2017-06-23T20:54:01.889Z,20.77
2017-06-23T20:56:28.359Z,24.33
2017-06-23T20:58:55.534Z,23.90
2017-06-23T21:01:21.952Z,25.50
2017-06-23T21:03:49.090Z,30.43
2017-06-23T21:06:15.512Z,23.40
2017-06-23T21:08:41.916Z,21.60
2017-06-23T21:11:08.316Z,26.07
2017-06-23T21:13:34.725Z,26.67
2017-06-23T21:16:01.866Z,20.40
2017-06-23T21:18:28.292Z,30.10
2017-06-23T21:20:54.716Z,22.37
2017-06-23T21:23:21.131Z,23.53
2017-06-23T21:25:47.530Z,24.93
2017-06-23T21:28:13.917Z,19.33
2017-06-23T21:30:40.333Z,23.13
2017-06-23T21:33:06.748Z,23.13
2017-06-23T21:35:33.193Z,29.67
2017-06-23T21:37:59.608Z,29.17
2017-06-23T21:40:49.179Z,21.10
2017-06-23T21:43:15.612Z,25.57
2017-06-23T21:45:42.021Z,29.97
2017-06-23T21:48:09.163Z,25.20
2017-06-23T21:50:36.335Z,29.83
2017-06-23T21:53:02.728Z,24.33
2017-06-23T21:55:29.136Z,29.67
2017-06-23T21:57:55.575Z,22.00
2017-06-23T22:00:22.063Z,25.53
2017-06-23T22:02:48.466Z,25.80
2017-06-23T22:05:14.868Z,30.83
2017-06-23T22:07:41.279Z,33.23
2017-06-23T22:10:07.688Z,30.03
2017-06-23T22:12:34.827Z,27.70
2017-06-23T22:15:01.953Z,29.40
2017-06-23T22:17:29.104Z,33.30
2017-06-23T22:19:55.537Z,33.67
2017-06-23T22:22:21.995Z,27.80
2017-06-23T22:24:49.138Z,31.67
2017-06-23T22:27:16.336Z,31.10
2017-06-23T22:29:42.744Z,27.23
2017-06-23T22:32:09.160Z,31.83
2017-06-23T22:34:36.305Z,25.80
2017-06-23T22:37:03.464Z,28.87
2017-06-23T22:39:30.607Z,31.70
2017-06-23T22:41:57.751Z,27.73
2017-06-23T22:44:24.916Z,28.00
2017-06-23T22:46:52.068Z,26.60
2017-06-23T22:49:19.243Z,29.10
2017-06-23T22:51:45.681Z,36.97
2017-06-23T22:54:12.075Z,26.63
2017-06-23T22:56:39.227Z,30.90
2017-06-23T22:59:06.388Z,27.23
2017-06-23T23:01:32.795Z,29.57
2017-06-23T23:03:59.266Z,28.40
2017-06-23T23:06:25.698Z,34.17
2017-06-23T23:08:52.149Z,33.87
2017-06-23T23:11:18.578Z,30.03
2017-06-23T23:13:45.007Z,33.87
2017-06-23T23:16:11.421Z,35.47
2017-06-23T23:18:38.565Z,36.00
2017-06-23T23:21:05.740Z,34.90
2017-06-23T23:23:32.136Z,30.93
2017-06-23T23:25:58.557Z,34.00
2017-06-23T23:28:25.009Z,29.03
2017-06-23T23:30:52.177Z,30.40
2017-06-23T23:33:18.608Z,29.23
2017-06-23T23:35:45.015Z,35.73
2017-06-23T23:38:11.430Z,34.37
2017-06-23T23:40:37.865Z,39.63
2017-06-23T23:43:04.266Z,35.83
2017-06-23T23:45:30.701Z,31.03
2017-06-23T23:47:57.106Z,32.80
2017-06-23T23:50:23.542Z,31.67
2017-06-23T23:52:49.945Z,32.23
2017-06-23T23:55:16.377Z,33.27
2017-06-23T23:57:42.810Z,29.80
